Time;durP1;ratioP1;P1;durP2;ratioP2;P2;SDS_P1;SDS_P2;PMS_P1;PMS_P2;Temp;Humidity;BMP_temperature;BMP_pressure;BME280_temperature;BME280_humidity;BME280_pressure;Samples;Min_cycle;Max_cycle;Signal;HPM_P1;HPM_P2
2023/10/20 00:01:01;;;;;;;15.18;8.60;;;;;;;;;;4964917;28;20043;-71
2023/10/20 00:03:27;;;;;;;13.68;7.78;;;;;;;;;;4967564;28;20034;-70
2023/10/20 00:05:53;;;;;;;12.43;7.55;;;;;;;;;;4957701;28;20043;-71
2023/10/20 00:08:19;;;;;;;11.73;8.00;;;;;;;;;;4966171;28;20446;-70
2023/10/20 00:10:45;;;;;;;13.27;8.18;;;;;;;;;;4958583;28;20045;-71
2023/10/20 00:13:11;;;;;;;12.60;7.25;;;;;;;;;;4963945;28;20042;-71
2023/10/20 00:15:37;;;;;;;10.13;6.25;;;;;;;;;;4967681;28;20085;-70
2023/10/20 00:18:03;;;;;;;14.77;7.68;;;;;;;;;;4969895;28;20030;-70
2023/10/20 00:20:29;;;;;;;15.25;7.88;;;;;;;;;;4967214;28;20047;-71
2023/10/20 00:22:55;;;;;;;11.80;7.90;;;;;;;;;;4965468;28;20135;-69
2023/10/20 00:25:22;;;;;;;16.17;8.32;;;;;;;;;;4966552;28;20046;-71
2023/10/20 00:27:47;;;;;;;14.73;8.52;;;;;;;;;;4961957;28;20396;-71
2023/10/20 00:30:14;;;;;;;13.13;8.55;;;;;;;;;;4982592;28;20117;-72
2023/10/20 00:32:40;;;;;;;13.80;8.95;;;;;;;;;;4957380;28;20035;-72
2023/10/20 00:35:13;;;;;;;16.50;9.00;;;;;;;;;;4976249;28;20676;-72
2023/10/20 00:37:39;;;;;;;16.05;8.63;;;;;;;;;;4966402;28;20527;-72
2023/10/20 00:40:07;;;;;;;12.82;8.60;;;;;;;;;;4963175;28;20027;-70
2023/10/20 00:42:34;;;;;;;17.83;8.50;;;;;;;;;;4969182;28;20035;-70
2023/10/20 00:44:59;;;;;;;11.07;7.60;;;;;;;;;;4946129;28;20531;-70
2023/10/20 00:47:26;;;;;;;12.68;7.97;;;;;;;;;;4966036;28;20070;-72
2023/10/20 00:49:53;;;;;;;14.77;7.88;;;;;;;;;;4977872;28;20100;-70
2023/10/20 00:52:19;;;;;;;14.07;7.90;;;;;;;;;;4958197;28;20042;-70
2023/10/20 00:54:47;;;;;;;13.65;7.65;;;;;;;;;;4980793;28;20035;-70
2023/10/20 00:57:16;;;;;;;13.15;7.10;;;;;;;;;;4960616;28;20117;-71
2023/10/20 00:59:43;;;;;;;13.77;7.35;;;;;;;;;;4973766;28;20457;-71
2023/10/20 01:02:09;;;;;;;11.00;6.90;;;;;;;;;;4965441;28;20042;-73
2023/10/20 01:04:35;;;;;;;10.70;6.53;;;;;;;;;;4962411;28;20081;-70
2023/10/20 01:07:00;;;;;;;10.68;7.00;;;;;;;;;;4963443;28;20035;-71
2023/10/20 01:09:27;;;;;;;13.60;7.75;;;;;;;;;;4960808;28;20022;-71
2023/10/20 01:11:55;;;;;;;10.90;7.57;;;;;;;;;;4969916;28;20038;-71
2023/10/20 01:14:21;;;;;;;10.52;7.40;;;;;;;;;;4965514;28;20023;-71
2023/10/20 01:16:47;;;;;;;13.38;7.15;;;;;;;;;;4983939;28;20031;-71
2023/10/20 01:19:14;;;;;;;16.58;8.98;;;;;;;;;;4966590;28;20023;-71
2023/10/20 01:21:40;;;;;;;13.68;7.07;;;;;;;;;;4973036;28;20405;-71
2023/10/20 01:24:06;;;;;;;15.13;8.95;;;;;;;;;;4974382;28;20031;-71
2023/10/20 01:26:32;;;;;;;17.92;8.77;;;;;;;;;;4963136;28;20035;-70
2023/10/20 01:28:59;;;;;;;13.35;8.25;;;;;;;;;;4964690;28;20027;-70
2023/10/20 01:31:25;;;;;;;13.90;8.00;;;;;;;;;;4962744;28;20478;-71
2023/10/20 01:33:51;;;;;;;13.68;8.40;;;;;;;;;;4967361;28;20044;-70
2023/10/20 01:36:17;;;;;;;14.00;8.35;;;;;;;;;;4970806;28;20031;-70
2023/10/20 01:38:44;;;;;;;11.65;7.95;;;;;;;;;;4959964;28;20126;-70
2023/10/20 01:41:10;;;;;;;12.38;7.38;;;;;;;;;;4982687;28;20031;-71
2023/10/20 01:43:36;;;;;;;12.40;7.78;;;;;;;;;;4967134;28;20085;-70
2023/10/20 01:46:04;;;;;;;12.27;7.13;;;;;;;;;;4969321;28;20035;-71
2023/10/20 01:48:32;;;;;;;15.02;8.52;;;;;;;;;;4962978;28;20027;-71
2023/10/20 01:51:02;;;;;;;13.15;7.28;;;;;;;;;;4977848;28;20034;-72
2023/10/20 01:53:28;;;;;;;10.45;6.57;;;;;;;;;;4962884;28;20050;-72
2023/10/20 01:55:53;;;;;;;11.80;6.50;;;;;;;;;;4967156;28;20066;-70
2023/10/20 01:58:20;;;;;;;10.77;6.68;;;;;;;;;;4978845;28;20064;-69
2023/10/20 02:00:52;;;;;;;10.95;6.88;;;;;;;;;;4967317;28;20033;-70
2023/10/20 02:03:19;;;;;;;16.95;7.85;;;;;;;;;;4979927;28;20049;-71
2023/10/20 02:05:45;;;;;;;22.10;8.23;;;;;;;;;;4965837;28;20025;-71
2023/10/20 02:08:11;;;;;;;14.20;8.02;;;;;;;;;;4968013;28;20089;-70
2023/10/20 02:10:37;;;;;;;15.38;8.18;;;;;;;;;;4968232;28;20085;-70
2023/10/20 02:13:03;;;;;;;11.48;7.43;;;;;;;;;;4973396;28;20035;-72
2023/10/20 02:15:32;;;;;;;13.23;7.55;;;;;;;;;;4970807;28;20476;-71
2023/10/20 02:17:58;;;;;;;12.98;7.03;;;;;;;;;;4976271;28;20031;-71
2023/10/20 02:20:25;;;;;;;14.43;8.82;;;;;;;;;;4987313;28;20035;-71
2023/10/20 02:22:55;;;;;;;12.23;7.88;;;;;;;;;;4968405;28;20115;-73
2023/10/20 02:25:22;;;;;;;18.83;8.45;;;;;;;;;;4973453;28;20503;-72
2023/10/20 02:27:47;;;;;;;12.45;7.60;;;;;;;;;;4973325;28;20027;-72
2023/10/20 02:30:15;;;;;;;9.98;7.03;;;;;;;;;;4993752;28;20042;-72
2023/10/20 02:32:41;;;;;;;15.13;7.47;;;;;;;;;;4974152;28;20334;-72
2023/10/20 02:35:11;;;;;;;12.85;7.65;;;;;;;;;;4985121;28;20039;-72
2023/10/20 02:37:37;;;;;;;10.93;7.22;;;;;;;;;;4973784;28;20125;-71
2023/10/20 02:40:05;;;;;;;11.07;6.70;;;;;;;;;;4969628;28;20055;-71
2023/10/20 02:42:32;;;;;;;12.73;6.95;;;;;;;;;;4982841;28;20063;-72
2023/10/20 02:44:58;;;;;;;10.45;6.90;;;;;;;;;;4977534;28;20019;-72
2023/10/20 02:47:25;;;;;;;11.18;6.72;;;;;;;;;;4967086;28;20179;-70
2023/10/20 02:49:58;;;;;;;15.40;7.40;;;;;;;;;;4973842;28;20029;-70
2023/10/20 02:52:25;;;;;;;27.33;9.27;;;;;;;;;;4974873;28;20062;-71
2023/10/20 02:54:53;;;;;;;18.10;8.02;;;;;;;;;;4980154;28;20050;-72
2023/10/20 02:57:20;;;;;;;13.93;7.22;;;;;;;;;;4973386;28;20038;-71
2023/10/20 02:59:50;;;;;;;18.83;6.60;;;;;;;;;;4974888;28;20147;-71
2023/10/20 03:02:17;;;;;;;14.98;7.63;;;;;;;;;;4973236;28;20085;-71
2023/10/20 03:04:43;;;;;;;11.32;6.80;;;;;;;;;;4973030;28;20058;-71
2023/10/20 03:07:09;;;;;;;14.38;7.22;;;;;;;;;;4979457;28;20089;-71
2023/10/20 03:09:38;;;;;;;11.55;7.15;;;;;;;;;;4974718;28;20038;-71
2023/10/20 03:12:04;;;;;;;9.15;6.68;;;;;;;;;;4973037;28;20409;-72
2023/10/20 03:14:30;;;;;;;9.32;6.05;;;;;;;;;;4974775;28;20022;-71
2023/10/20 03:16:56;;;;;;;17.20;7.80;;;;;;;;;;4973089;28;20113;-72
2023/10/20 03:19:22;;;;;;;14.20;6.70;;;;;;;;;;4975303;28;20114;-72
2023/10/20 03:21:48;;;;;;;23.30;8.32;;;;;;;;;;4973213;28;20071;-72
2023/10/20 03:24:14;;;;;;;14.00;7.38;;;;;;;;;;4971773;28;20029;-72
2023/10/20 03:26:40;;;;;;;14.02;6.57;;;;;;;;;;4972804;28;20121;-71
2023/10/20 03:29:05;;;;;;;17.77;6.18;;;;;;;;;;4974460;28;20110;-72
2023/10/20 03:31:32;;;;;;;15.13;6.32;;;;;;;;;;4972794;28;20038;-72
2023/10/20 03:33:58;;;;;;;17.00;6.75;;;;;;;;;;4980111;28;20549;-70
2023/10/20 03:36:23;;;;;;;11.88;6.35;;;;;;;;;;4971680;28;20114;-71
2023/10/20 03:38:52;;;;;;;13.35;7.22;;;;;;;;;;4979126;28;20038;-72
2023/10/20 03:41:18;;;;;;;26.10;8.32;;;;;;;;;;4971114;28;20035;-70
2023/10/20 03:43:44;;;;;;;22.75;8.35;;;;;;;;;;4972258;28;20034;-72
2023/10/20 03:46:13;;;;;;;17.85;8.57;;;;;;;;;;4971750;28;20039;-70
2023/10/20 03:48:40;;;;;;;19.13;8.75;;;;;;;;;;4973332;28;20377;-70
2023/10/20 03:51:11;;;;;;;20.08;9.52;;;;;;;;;;4972676;28;20512;-70
2023/10/20 03:53:46;;;;;;;27.20;10.48;;;;;;;;;;4978842;28;20444;-71
2023/10/20 03:56:12;;;;;;;17.40;8.68;;;;;;;;;;4971161;28;20042;-71
2023/10/20 03:58:42;;;;;;;25.23;8.98;;;;;;;;;;4973291;28;20036;-70
2023/10/20 04:01:07;;;;;;;25.98;10.32;;;;;;;;;;4972609;28;20035;-71
2023/10/20 04:03:33;;;;;;;18.40;8.20;;;;;;;;;;4990524;28;20034;-71
2023/10/20 04:06:02;;;;;;;20.17;9.65;;;;;;;;;;4990175;28;20042;-70
2023/10/20 04:08:28;;;;;;;18.52;9.73;;;;;;;;;;4989594;28;20334;-71
2023/10/20 04:10:57;;;;;;;17.60;8.00;;;;;;;;;;4992272;28;20073;-72
2023/10/20 04:13:23;;;;;;;19.15;7.85;;;;;;;;;;4992397;28;20672;-70
2023/10/20 04:15:55;;;;;;;17.58;7.97;;;;;;;;;;4992784;28;20161;-71
2023/10/20 04:18:26;;;;;;;15.48;8.32;;;;;;;;;;4972592;28;20053;-71
2023/10/20 04:20:57;;;;;;;14.90;7.82;;;;;;;;;;4972665;28;20097;-71
2023/10/20 04:23:23;;;;;;;16.02;8.75;;;;;;;;;;4972842;28;20437;-71
2023/10/20 04:25:52;;;;;;;16.23;8.02;;;;;;;;;;4972744;28;20035;-71
2023/10/20 04:58:11;;;;;;;27.67;8.90;;;;;;;;;;4972382;28;20072;-72
2023/10/20 05:00:37;;;;;;;32.58;9.77;;;;;;;;;;4969042;28;20035;-72
2023/10/20 05:05:42;;;;;;;16.27;8.95;;;;;;;;;;4971585;28;20035;-71
2023/10/20 05:10:34;;;;;;;30.70;9.63;;;;;;;;;;4965745;28;20170;-72
2023/10/20 05:13:00;;;;;;;21.13;9.52;;;;;;;;;;4963817;28;20446;-71
2023/10/20 05:15:26;;;;;;;22.63;8.75;;;;;;;;;;4967406;28;20066;-70
2023/10/20 05:17:52;;;;;;;23.42;9.27;;;;;;;;;;4972278;28;20035;-70
2023/10/20 05:20:20;;;;;;;23.60;9.48;;;;;;;;;;4976292;28;20029;-71
2023/10/20 05:22:47;;;;;;;37.25;11.02;;;;;;;;;;4971417;28;20159;-71
2023/10/20 05:25:16;;;;;;;49.60;11.38;;;;;;;;;;4971562;28;20441;-71
2023/10/20 05:27:45;;;;;;;28.98;9.43;;;;;;;;;;4963885;28;20038;-71
2023/10/20 05:30:11;;;;;;;13.57;7.53;;;;;;;;;;4972443;28;20026;-71
2023/10/20 05:32:39;;;;;;;21.13;7.55;;;;;;;;;;4972037;28;20416;-72
2023/10/20 05:35:08;;;;;;;22.55;7.25;;;;;;;;;;4971771;28;20018;-71
2023/10/20 05:37:34;;;;;;;10.07;5.80;;;;;;;;;;4971506;28;20123;-71
2023/10/20 05:40:00;;;;;;;9.85;5.63;;;;;;;;;;4971602;28;20455;-72
2023/10/20 05:42:26;;;;;;;16.05;5.97;;;;;;;;;;4970481;28;20508;-72
2023/10/20 05:45:10;;;;;;;12.75;5.40;;;;;;;;;;4971616;28;20030;-71
2023/10/20 05:47:37;;;;;;;6.32;4.95;;;;;;;;;;4971392;28;20043;-72
2023/10/20 05:50:07;;;;;;;9.57;4.45;;;;;;;;;;4971356;28;20118;-71
2023/10/20 05:52:35;;;;;;;13.18;4.60;;;;;;;;;;4971458;28;20085;-73
2023/10/20 05:55:03;;;;;;;8.82;4.70;;;;;;;;;;4971942;28;20015;-73
2023/10/20 05:57:29;;;;;;;10.98;5.13;;;;;;;;;;4971746;28;20037;-73
2023/10/20 05:59:54;;;;;;;19.98;5.57;;;;;;;;;;4971638;28;20026;-72
2023/10/20 06:02:21;;;;;;;13.15;5.18;;;;;;;;;;4969611;28;20346;-72
2023/10/20 06:04:47;;;;;;;12.35;4.93;;;;;;;;;;4973381;28;20026;-71
2023/10/20 06:07:12;;;;;;;10.75;4.35;;;;;;;;;;4974334;28;20027;-72
2023/10/20 06:09:39;;;;;;;11.80;5.13;;;;;;;;;;4974628;28;20111;-72
2023/10/20 06:12:07;;;;;;;9.20;4.47;;;;;;;;;;4968719;28;20034;-73
2023/10/20 06:14:32;;;;;;;9.98;4.50;;;;;;;;;;4967183;28;20026;-72
2023/10/20 06:16:58;;;;;;;17.00;4.85;;;;;;;;;;4967231;28;20027;-72
2023/10/20 06:19:28;;;;;;;17.13;5.60;;;;;;;;;;4968048;28;20102;-72
2023/10/20 06:21:55;;;;;;;22.05;7.90;;;;;;;;;;4967826;28;20034;-71
2023/10/20 06:24:24;;;;;;;12.35;6.10;;;;;;;;;;4973018;28;20041;-72
2023/10/20 06:26:49;;;;;;;14.85;5.72;;;;;;;;;;4973356;28;20126;-71
2023/10/20 06:30:05;;;;;;;15.65;7.03;;;;;;;;;;4973736;28;20116;-71
2023/10/20 06:32:22;;;;;;;14.52;7.03;;;;;;;;;;4973331;28;20493;-75
2023/10/20 06:34:49;;;;;;;15.60;7.43;;;;;;;;;;4974226;28;20118;-72
2023/10/20 06:37:36;;;;;;;20.20;6.57;;;;;;;;;;4967352;28;20469;-71
2023/10/20 06:40:03;;;;;;;16.80;5.93;;;;;;;;;;4968895;28;20062;-72
2023/10/20 06:42:29;;;;;;;17.45;5.75;;;;;;;;;;4972076;28;20109;-71
2023/10/20 06:44:55;;;;;;;12.88;5.97;;;;;;;;;;4972971;28;20042;-75
2023/10/20 06:47:22;;;;;;;11.50;6.15;;;;;;;;;;4973411;28;20027;-73
2023/10/20 06:49:48;;;;;;;11.15;5.90;;;;;;;;;;4966008;28;20061;-71
2023/10/20 06:52:18;;;;;;;32.38;6.90;;;;;;;;;;4973284;28;20473;-71
2023/10/20 06:54:48;;;;;;;22.75;8.35;;;;;;;;;;4973705;28;20452;-71
2023/10/20 06:57:15;;;;;;;22.15;6.43;;;;;;;;;;4973206;28;20077;-71
2023/10/20 06:59:42;;;;;;;11.43;5.05;;;;;;;;;;4973159;28;20066;-72
2023/10/20 07:02:07;;;;;;;14.75;5.18;;;;;;;;;;4973034;28;20037;-72
2023/10/20 07:04:33;;;;;;;12.52;5.03;;;;;;;;;;4973155;28;20030;-72
2023/10/20 07:06:59;;;;;;;26.08;5.70;;;;;;;;;;4972134;28;20059;-73
2023/10/20 07:09:24;;;;;;;13.50;4.60;;;;;;;;;;4973211;28;20382;-73
2023/10/20 07:11:52;;;;;;;9.25;4.88;;;;;;;;;;4973613;28;20117;-72
2023/10/20 07:14:17;;;;;;;14.75;5.50;;;;;;;;;;4972644;28;20469;-71
2023/10/20 07:16:43;;;;;;;11.27;5.32;;;;;;;;;;4966715;28;20030;-74
2023/10/20 07:19:09;;;;;;;14.93;7.38;;;;;;;;;;4962635;28;20410;-72
2023/10/20 07:21:35;;;;;;;19.25;6.78;;;;;;;;;;4963363;28;20512;-71
2023/10/20 07:24:03;;;;;;;17.20;7.25;;;;;;;;;;4962469;28;20168;-73
2023/10/20 07:26:29;;;;;;;15.43;6.38;;;;;;;;;;4967641;28;20398;-73
2023/10/20 07:28:55;;;;;;;12.63;6.07;;;;;;;;;;4953592;28;20027;-72
2023/10/20 07:31:21;;;;;;;14.27;5.95;;;;;;;;;;4953568;28;20075;-73
2023/10/20 07:33:50;;;;;;;15.25;6.00;;;;;;;;;;4952897;28;20113;-72
2023/10/20 07:36:16;;;;;;;11.32;6.15;;;;;;;;;;4952571;28;20485;-72
2023/10/20 07:38:42;;;;;;;12.73;5.63;;;;;;;;;;4967281;28;20027;-72
2023/10/20 07:41:11;;;;;;;8.52;5.50;;;;;;;;;;4971589;28;20027;-73
2023/10/20 07:43:40;;;;;;;10.27;5.50;;;;;;;;;;4969744;28;20023;-72
2023/10/20 07:46:06;;;;;;;11.15;5.30;;;;;;;;;;4971241;28;20034;-70
2023/10/20 07:48:33;;;;;;;12.88;5.55;;;;;;;;;;4964769;28;20049;-72
2023/10/20 07:50:59;;;;;;;15.43;5.30;;;;;;;;;;4963835;28;20181;-71
2023/10/20 07:53:26;;;;;;;10.32;4.55;;;;;;;;;;4962559;28;20584;-73
2023/10/20 07:55:56;;;;;;;8.60;4.50;;;;;;;;;;4979436;28;20041;-76
2023/10/20 07:58:22;;;;;;;10.50;5.22;;;;;;;;;;4971654;28;20401;-72
2023/10/20 08:00:48;;;;;;;17.63;4.50;;;;;;;;;;4972064;28;20118;-72
2023/10/20 08:03:14;;;;;;;10.40;4.07;;;;;;;;;;4972818;28;20525;-73
2023/10/20 08:05:40;;;;;;;9.48;4.60;;;;;;;;;;4970886;28;20176;-71
2023/10/20 08:08:06;;;;;;;11.35;4.47;;;;;;;;;;4966033;28;20037;-74
2023/10/20 08:10:35;;;;;;;10.90;4.85;;;;;;;;;;4970472;28;20027;-71
2023/10/20 08:13:02;;;;;;;11.85;4.43;;;;;;;;;;4972450;28;20523;-70
2023/10/20 08:15:29;;;;;;;7.28;3.65;;;;;;;;;;4970993;28;20042;-71
2023/10/20 08:17:55;;;;;;;11.55;4.45;;;;;;;;;;4970206;28;20043;-72
2023/10/20 08:20:21;;;;;;;10.75;4.05;;;;;;;;;;4971215;28;20062;-71
2023/10/20 08:22:47;;;;;;;12.50;5.68;;;;;;;;;;4973185;28;20069;-71
2023/10/20 08:25:14;;;;;;;10.45;4.07;;;;;;;;;;4970205;28;20062;-72
2023/10/20 08:27:40;;;;;;;10.05;4.70;;;;;;;;;;4970708;28;20046;-72
2023/10/20 08:30:07;;;;;;;9.52;4.40;;;;;;;;;;4970582;28;20029;-70
2023/10/20 08:32:32;;;;;;;12.30;4.13;;;;;;;;;;4971059;28;20093;-70
2023/10/20 08:34:58;;;;;;;9.65;4.57;;;;;;;;;;4971657;28;20019;-72
2023/10/20 08:37:25;;;;;;;11.38;4.15;;;;;;;;;;4971093;28;20039;-71
2023/10/20 08:39:50;;;;;;;6.38;4.22;;;;;;;;;;4971897;28;20027;-73
2023/10/20 08:42:17;;;;;;;8.45;4.10;;;;;;;;;;4972053;28;20039;-70
2023/10/20 08:44:44;;;;;;;10.35;4.00;;;;;;;;;;4972001;28;20023;-71
2023/10/20 08:47:16;;;;;;;12.40;4.70;;;;;;;;;;4972089;28;20034;-70
2023/10/20 08:49:45;;;;;;;8.00;4.63;;;;;;;;;;4972223;28;20035;-70
2023/10/20 08:52:12;;;;;;;9.05;4.15;;;;;;;;;;4972099;28;20031;-71
2023/10/20 08:54:41;;;;;;;8.82;4.35;;;;;;;;;;4972071;28;20035;-72
2023/10/20 08:57:08;;;;;;;8.77;4.40;;;;;;;;;;4972192;28;20031;-71
2023/10/20 08:59:35;;;;;;;9.43;4.50;;;;;;;;;;4972042;28;20485;-69
2023/10/20 09:02:02;;;;;;;9.85;4.30;;;;;;;;;;4972494;28;20113;-73
2023/10/20 09:04:28;;;;;;;6.45;4.18;;;;;;;;;;4972147;28;20035;-72
2023/10/20 09:06:54;;;;;;;7.55;4.25;;;;;;;;;;4970669;28;20049;-72
2023/10/20 09:09:21;;;;;;;8.20;4.00;;;;;;;;;;4972518;28;20034;-73
2023/10/20 09:11:47;;;;;;;9.35;5.00;;;;;;;;;;4974880;28;20047;-72
2023/10/20 09:14:14;;;;;;;10.68;4.88;;;;;;;;;;4974418;28;20023;-72
2023/10/20 09:16:40;;;;;;;10.57;4.88;;;;;;;;;;4973992;28;20057;-72
2023/10/20 09:19:09;;;;;;;9.32;4.35;;;;;;;;;;4972157;28;20041;-74
2023/10/20 09:21:41;;;;;;;7.47;3.80;;;;;;;;;;4971831;28;20031;-72
2023/10/20 09:24:09;;;;;;;7.88;4.07;;;;;;;;;;4971806;28;20034;-72
2023/10/20 09:26:36;;;;;;;7.22;4.13;;;;;;;;;;4970396;28;20118;-72
2023/10/20 09:29:05;;;;;;;8.88;4.13;;;;;;;;;;4972376;28;20403;-72
2023/10/20 09:31:31;;;;;;;8.13;4.40;;;;;;;;;;4972251;28;20022;-72
2023/10/20 09:33:57;;;;;;;6.43;4.07;;;;;;;;;;4972357;28;20488;-74
2023/10/20 09:36:24;;;;;;;8.88;4.15;;;;;;;;;;4972088;28;20038;-72
2023/10/20 09:38:55;;;;;;;8.57;4.22;;;;;;;;;;4972865;28;20054;-71
2023/10/20 09:41:23;;;;;;;8.77;4.35;;;;;;;;;;4976500;28;20409;-73
2023/10/20 09:43:53;;;;;;;5.63;4.47;;;;;;;;;;4974925;28;20061;-73
2023/10/20 09:46:27;;;;;;;10.88;5.10;;;;;;;;;;4975062;28;20477;-73
2023/10/20 09:48:59;;;;;;;9.65;4.10;;;;;;;;;;4975602;28;20405;-72
2023/10/20 09:51:26;;;;;;;11.15;5.50;;;;;;;;;;4975675;28;20100;-73
2023/10/20 09:53:53;;;;;;;14.25;4.60;;;;;;;;;;4975831;28;20106;-72
2023/10/20 09:56:20;;;;;;;13.75;5.40;;;;;;;;;;4970160;28;20122;-74
2023/10/20 09:58:46;;;;;;;11.07;5.30;;;;;;;;;;4966906;28;20054;-71
2023/10/20 10:01:18;;;;;;;8.40;4.90;;;;;;;;;;4958193;28;20497;-72
2023/10/20 10:04:01;;;;;;;8.98;4.60;;;;;;;;;;4955640;28;20039;-72
2023/10/20 10:06:32;;;;;;;8.63;4.60;;;;;;;;;;4974498;28;20042;-71
2023/10/20 10:08:58;;;;;;;9.40;4.60;;;;;;;;;;4994621;28;20095;-72
2023/10/20 10:11:29;;;;;;;9.98;4.30;;;;;;;;;;4993927;28;20105;-71
2023/10/20 10:13:58;;;;;;;6.72;4.80;;;;;;;;;;4994419;28;20030;-72
2023/10/20 10:16:25;;;;;;;6.68;4.60;;;;;;;;;;4988271;28;20031;-71
2023/10/20 10:18:54;;;;;;;11.68;4.57;;;;;;;;;;4971878;28;20034;-71
2023/10/20 10:21:29;;;;;;;9.05;4.50;;;;;;;;;;4972918;28;20074;-72
2023/10/20 10:24:25;;;;;;;14.70;8.75;;;;;;;;;;4974364;28;20050;-71
2023/10/20 10:27:02;;;;;;;9.15;4.40;;;;;;;;;;4973504;28;20057;-70
2023/10/20 10:29:49;;;;;;;9.38;4.72;;;;;;;;;;4993553;28;20089;-72
2023/10/20 10:32:18;;;;;;;8.60;4.50;;;;;;;;;;4993928;28;20057;-71
2023/10/20 10:34:45;;;;;;;9.32;4.93;;;;;;;;;;4982098;28;20085;-72
2023/10/20 10:37:12;;;;;;;11.23;4.45;;;;;;;;;;4964698;28;20035;-73
2023/10/20 10:39:37;;;;;;;5.70;3.97;;;;;;;;;;4964829;28;20034;-71
2023/10/20 10:42:05;;;;;;;6.68;3.80;;;;;;;;;;4968026;28;20039;-70
2023/10/20 10:44:37;;;;;;;11.77;3.90;;;;;;;;;;4972990;28;20085;-70
2023/10/20 10:47:05;;;;;;;5.85;4.35;;;;;;;;;;4988360;28;20046;-71
2023/10/20 10:49:32;;;;;;;7.10;4.55;;;;;;;;;;4993837;28;20433;-71
2023/10/20 10:51:58;;;;;;;9.48;4.18;;;;;;;;;;4966707;28;20126;-73
2023/10/20 10:54:26;;;;;;;8.38;3.92;;;;;;;;;;4958308;28;20047;-72
2023/10/20 10:56:52;;;;;;;7.88;4.53;;;;;;;;;;4954497;28;20070;-72
2023/10/20 10:59:19;;;;;;;7.93;4.47;;;;;;;;;;4960122;28;20050;-71
2023/10/20 11:01:46;;;;;;;9.73;4.22;;;;;;;;;;4973954;28;20123;-71
2023/10/20 11:04:12;;;;;;;12.15;4.40;;;;;;;;;;4955670;28;20054;-70
2023/10/20 11:06:38;;;;;;;7.03;4.15;;;;;;;;;;4951688;29;20461;-71
2023/10/20 11:09:11;;;;;;;11.45;4.57;;;;;;;;;;4953218;28;20050;-71
2023/10/20 11:11:47;;;;;;;10.02;4.28;;;;;;;;;;4954485;28;20043;-71
2023/10/20 11:14:18;;;;;;;14.35;3.97;;;;;;;;;;4954397;28;20035;-73
2023/10/20 11:16:44;;;;;;;8.40;3.47;;;;;;;;;;4954277;29;20397;-72
2023/10/20 11:19:13;;;;;;;6.75;3.55;;;;;;;;;;4954071;28;20023;-72
2023/10/20 11:21:47;;;;;;;7.18;3.97;;;;;;;;;;4954326;28;20043;-71
2023/10/20 11:24:34;;;;;;;12.55;4.53;;;;;;;;;;4954334;28;20044;-70
2023/10/20 11:27:08;;;;;;;9.48;3.67;;;;;;;;;;4954502;28;20110;-72
2023/10/20 11:29:36;;;;;;;10.00;3.55;;;;;;;;;;4954396;29;20043;-71
2023/10/20 11:32:07;;;;;;;4.32;2.78;;;;;;;;;;4953969;28;20062;-71
2023/10/20 11:34:36;;;;;;;7.05;3.90;;;;;;;;;;4962788;28;20489;-70
2023/10/20 11:37:03;;;;;;;10.45;4.85;;;;;;;;;;4972946;28;20058;-72
2023/10/20 11:39:30;;;;;;;6.00;3.42;;;;;;;;;;4972766;28;20113;-71
2023/10/20 11:41:56;;;;;;;13.90;3.92;;;;;;;;;;4973702;28;20058;-70
2023/10/20 11:44:26;;;;;;;10.45;3.00;;;;;;;;;;4972234;28;20149;-72
2023/10/20 11:46:53;;;;;;;5.47;2.60;;;;;;;;;;4972996;28;20038;-71
2023/10/20 11:49:20;;;;;;;8.85;2.60;;;;;;;;;;4973124;28;20057;-71
2023/10/20 11:51:47;;;;;;;10.45;3.67;;;;;;;;;;4972912;28;20069;-70
2023/10/20 11:54:13;;;;;;;7.00;2.90;;;;;;;;;;4973473;28;20026;-72
2023/10/20 11:56:40;;;;;;;9.70;3.15;;;;;;;;;;4972782;28;20046;-73
2023/10/20 11:59:06;;;;;;;15.00;3.50;;;;;;;;;;4973660;28;20023;-70
2023/10/20 12:01:32;;;;;;;10.07;3.05;;;;;;;;;;4972847;28;20047;-71
2023/10/20 12:04:05;;;;;;;10.30;3.60;;;;;;;;;;4972933;28;20480;-71
2023/10/20 12:06:31;;;;;;;;;;;;;;;;;;4973284;28;20031;-70
2023/10/20 12:08:56;;;;;;;7.50;2.15;;;;;;;;;;4972938;28;19910;-72
2023/10/20 12:11:22;;;;;;;7.90;3.38;;;;;;;;;;4973135;28;20039;-71
2023/10/20 12:13:48;;;;;;;4.40;2.25;;;;;;;;;;4972830;28;20450;-72
2023/10/20 12:16:15;;;;;;;10.00;2.47;;;;;;;;;;4971583;28;20109;-70
2023/10/20 12:18:44;;;;;;;7.65;2.60;;;;;;;;;;4973141;28;20078;-72
2023/10/20 12:21:10;;;;;;;5.03;2.38;;;;;;;;;;4971757;28;20038;-72
2023/10/20 12:23:37;;;;;;;6.93;2.60;;;;;;;;;;4973316;28;20038;-71
2023/10/20 12:26:04;;;;;;;6.75;2.83;;;;;;;;;;4972823;28;20042;-71
2023/10/20 12:28:31;;;;;;;7.18;2.67;;;;;;;;;;4972874;28;20039;-71
2023/10/20 12:30:59;;;;;;;9.55;2.63;;;;;;;;;;4973327;28;20035;-71
2023/10/20 12:33:25;;;;;;;7.72;2.92;;;;;;;;;;4972943;28;20528;-71
2023/10/20 12:35:55;;;;;;;5.97;2.47;;;;;;;;;;4971499;28;20035;-72
2023/10/20 12:38:22;;;;;;;5.40;2.30;;;;;;;;;;4971346;28;20046;-72
2023/10/20 12:40:51;;;;;;;6.03;2.95;;;;;;;;;;4972561;28;20030;-72
2023/10/20 12:43:17;;;;;;;7.63;2.97;;;;;;;;;;4972449;28;20573;-73
2023/10/20 12:45:43;;;;;;;8.93;2.88;;;;;;;;;;4972558;28;20110;-70
2023/10/20 12:48:09;;;;;;;6.88;2.63;;;;;;;;;;4972422;28;20485;-71
2023/10/20 12:50:36;;;;;;;7.65;3.40;;;;;;;;;;4972355;28;20030;-71
2023/10/20 12:53:07;;;;;;;6.53;2.50;;;;;;;;;;4972479;28;20077;-70
2023/10/20 12:55:33;;;;;;;6.25;2.58;;;;;;;;;;4972408;28;20031;-74
2023/10/20 12:57:59;;;;;;;9.93;3.00;;;;;;;;;;4972363;28;20081;-72
2023/10/20 13:00:27;;;;;;;9.10;2.45;;;;;;;;;;4972664;28;20043;-73
2023/10/20 13:02:53;;;;;;;7.35;2.67;;;;;;;;;;4987874;28;20031;-70
2023/10/20 13:05:21;;;;;;;10.55;2.92;;;;;;;;;;4973163;28;20199;-73
2023/10/20 13:07:50;;;;;;;6.07;2.53;;;;;;;;;;4971090;28;20106;-73
2023/10/20 13:10:16;;;;;;;5.88;2.45;;;;;;;;;;4972100;28;20580;-70
2023/10/20 13:12:43;;;;;;;5.40;2.38;;;;;;;;;;4972812;28;20023;-70
2023/10/20 13:15:09;;;;;;;5.70;2.00;;;;;;;;;;4976110;28;20089;-71
2023/10/20 13:17:36;;;;;;;8.77;2.10;;;;;;;;;;4976418;28;20117;-71
2023/10/20 13:20:05;;;;;;;8.18;2.45;;;;;;;;;;4976494;28;20042;-71
2023/10/20 13:22:32;;;;;;;5.25;2.63;;;;;;;;;;4976194;28;20029;-72
2023/10/20 13:24:57;;;;;;;5.70;2.80;;;;;;;;;;4976128;28;20035;-71
2023/10/20 13:27:25;;;;;;;6.22;2.53;;;;;;;;;;4976251;28;20374;-72
2023/10/20 13:29:51;;;;;;;7.78;2.63;;;;;;;;;;4975811;28;20038;-72
2023/10/20 13:32:17;;;;;;;5.68;2.35;;;;;;;;;;4975996;28;20035;-72
2023/10/20 13:34:43;;;;;;;10.93;2.70;;;;;;;;;;4971181;28;20408;-72
2023/10/20 13:37:09;;;;;;;7.13;2.22;;;;;;;;;;4975298;28;20046;-72
2023/10/20 13:39:35;;;;;;;6.82;2.40;;;;;;;;;;4975548;28;20041;-72
2023/10/20 13:42:02;;;;;;;7.95;2.30;;;;;;;;;;4975731;28;20027;-72
2023/10/20 13:44:28;;;;;;;8.90;2.20;;;;;;;;;;4975779;28;20043;-70
2023/10/20 13:46:53;;;;;;;7.38;2.40;;;;;;;;;;4975570;28;20027;-70
2023/10/20 13:49:21;;;;;;;6.40;3.00;;;;;;;;;;4975457;28;20057;-71
2023/10/20 13:51:47;;;;;;;8.32;2.40;;;;;;;;;;4975290;28;20030;-71
2023/10/20 13:54:13;;;;;;;7.75;2.50;;;;;;;;;;4975487;28;20035;-73
2023/10/20 13:56:38;;;;;;;6.03;2.97;;;;;;;;;;4975137;28;20114;-71
2023/10/20 13:59:05;;;;;;;8.15;2.70;;;;;;;;;;4975216;28;20096;-70
2023/10/20 14:01:31;;;;;;;5.68;2.25;;;;;;;;;;4975245;28;20030;-69
2023/10/20 14:03:56;;;;;;;6.65;2.42;;;;;;;;;;4975257;28;20358;-73
2023/10/20 14:06:24;;;;;;;6.15;2.25;;;;;;;;;;4973465;28;20385;-72
2023/10/20 14:08:50;;;;;;;6.53;2.38;;;;;;;;;;4970038;28;20035;-70
2023/10/20 14:11:16;;;;;;;8.82;2.47;;;;;;;;;;4974821;28;20525;-71
2023/10/20 14:13:41;;;;;;;5.25;2.47;;;;;;;;;;4975063;28;20039;-71
2023/10/20 14:16:08;;;;;;;7.95;2.63;;;;;;;;;;4975041;28;20031;-71
2023/10/20 14:18:34;;;;;;;6.57;2.40;;;;;;;;;;4974925;28;20413;-72
2023/10/20 14:20:59;;;;;;;4.47;2.20;;;;;;;;;;4975047;28;20026;-71
2023/10/20 14:23:31;;;;;;;4.72;2.78;;;;;;;;;;4975082;28;20039;-71
2023/10/20 14:26:00;;;;;;;8.43;2.88;;;;;;;;;;4974457;28;20035;-71
2023/10/20 14:28:31;;;;;;;8.15;2.47;;;;;;;;;;4975057;28;20492;-71
2023/10/20 14:31:01;;;;;;;9.35;2.97;;;;;;;;;;4975029;28;20400;-72
2023/10/20 14:33:28;;;;;;;10.65;3.58;;;;;;;;;;4974980;28;20137;-71
2023/10/20 14:35:56;;;;;;;5.57;2.33;;;;;;;;;;4975378;28;20026;-72
2023/10/20 14:38:26;;;;;;;5.55;2.50;;;;;;;;;;4971715;28;20110;-72
2023/10/20 14:41:07;;;;;;;9.10;2.50;;;;;;;;;;4974481;28;20130;-71
2023/10/20 14:43:35;;;;;;;8.35;2.45;;;;;;;;;;4967211;28;20397;-71
2023/10/20 14:46:02;;;;;;;6.53;2.40;;;;;;;;;;4974299;28;20027;-70
2023/10/20 14:48:28;;;;;;;10.50;2.70;;;;;;;;;;4974334;28;20582;-72
2023/10/20 14:50:54;;;;;;;8.75;2.70;;;;;;;;;;4974294;28;20039;-70
2023/10/20 14:53:20;;;;;;;7.13;3.50;;;;;;;;;;4972193;28;20134;-72
2023/10/20 14:55:47;;;;;;;10.98;3.03;;;;;;;;;;4973792;28;20101;-71
2023/10/20 14:58:12;;;;;;;6.63;3.08;;;;;;;;;;4973806;28;20392;-70
2023/10/20 15:00:47;;;;;;;6.03;2.40;;;;;;;;;;4974123;28;20031;-71
2023/10/20 15:03:14;;;;;;;8.70;2.60;;;;;;;;;;4974127;28;20113;-71
2023/10/20 15:05:41;;;;;;;10.88;4.32;;;;;;;;;;4973967;28;20022;-70
2023/10/20 15:08:08;;;;;;;12.35;4.50;;;;;;;;;;4973914;28;20047;-71
2023/10/20 15:10:37;;;;;;;8.63;3.65;;;;;;;;;;4973779;28;20031;-71
2023/10/20 15:13:03;;;;;;;10.10;4.70;;;;;;;;;;4974244;28;20046;-69